sensor_id;sensor_type;location;lat;lon;timestamp;P1;durP1;ratioP1;P2;durP2;ratioP2
2868;SDS011;1442;47.448;8.582;2023-05-10T00:01:27;0.60;;;0.30;;
2868;SDS011;1442;47.448;8.582;2023-05-10T00:03:54;2.30;;;0.40;;
2868;SDS011;1442;47.448;8.582;2023-05-10T00:06:21;1.45;;;0.45;;
2868;SDS011;1442;47.448;8.582;2023-05-10T00:08:48;0.30;;;0.30;;
2868;SDS011;1442;47.448;8.582;2023-05-10T00:11:15;2.25;;;0.50;;
2868;SDS011;1442;47.448;8.582;2023-05-10T00:13:43;1.85;;;0.47;;
2868;SDS011;1442;47.448;8.582;2023-05-10T00:16:11;0.40;;;0.40;;
2868;SDS011;1442;47.448;8.582;2023-05-10T00:18:39;3.30;;;0.43;;
2868;SDS011;1442;47.448;8.582;2023-05-10T00:21:06;1.88;;;0.50;;
2868;SDS011;1442;47.448;8.582;2023-05-10T00:23:33;1.17;;;0.50;;
2868;SDS011;1442;47.448;8.582;2023-05-10T00:26:00;0.63;;;0.50;;
2868;SDS011;1442;47.448;8.582;2023-05-10T00:28:27;1.98;;;0.30;;
2868;SDS011;1442;47.448;8.582;2023-05-10T00:30:55;0.30;;;0.30;;
2868;SDS011;1442;47.448;8.582;2023-05-10T00:33:24;0.40;;;0.40;;
2868;SDS011;1442;47.448;8.582;2023-05-10T00:35:51;3.58;;;0.60;;
2868;SDS011;1442;47.448;8.582;2023-05-10T00:38:18;0.45;;;0.45;;
2868;SDS011;1442;47.448;8.582;2023-05-10T00:40:45;0.47;;;0.40;;
2868;SDS011;1442;47.448;8.582;2023-05-10T00:43:12;0.22;;;0.22;;
2868;SDS011;1442;47.448;8.582;2023-05-10T00:45:40;2.72;;;0.45;;
2868;SDS011;1442;47.448;8.582;2023-05-10T00:48:07;0.70;;;0.50;;
2868;SDS011;1442;47.448;8.582;2023-05-10T00:50:35;0.30;;;0.30;;
2868;SDS011;1442;47.448;8.582;2023-05-10T00:53:05;4.15;;;0.50;;
2868;SDS011;1442;47.448;8.582;2023-05-10T00:55:32;0.40;;;0.40;;
2868;SDS011;1442;47.448;8.582;2023-05-10T00:57:59;0.50;;;0.50;;
2868;SDS011;1442;47.448;8.582;2023-05-10T01:00:26;6.60;;;0.95;;
2868;SDS011;1442;47.448;8.582;2023-05-10T01:02:54;0.50;;;0.40;;
2868;SDS011;1442;47.448;8.582;2023-05-10T01:05:21;0.40;;;0.40;;
2868;SDS011;1442;47.448;8.582;2023-05-10T01:07:50;0.40;;;0.40;;
2868;SDS011;1442;47.448;8.582;2023-05-10T01:10:17;0.40;;;0.40;;
2868;SDS011;1442;47.448;8.582;2023-05-10T01:12:45;1.67;;;0.40;;
2868;SDS011;1442;47.448;8.582;2023-05-10T01:15:13;1.10;;;0.47;;
2868;SDS011;1442;47.448;8.582;2023-05-10T01:17:42;0.47;;;0.47;;
2868;SDS011;1442;47.448;8.582;2023-05-10T01:20:10;2.45;;;0.47;;
2868;SDS011;1442;47.448;8.582;2023-05-10T01:25:28;3.08;;;0.50;;
2868;SDS011;1442;47.448;8.582;2023-05-10T01:28:16;0.52;;;0.50;;
2868;SDS011;1442;47.448;8.582;2023-05-10T01:33:31;1.35;;;0.55;;
2868;SDS011;1442;47.448;8.582;2023-05-10T01:36:03;2.05;;;0.40;;
2868;SDS011;1442;47.448;8.582;2023-05-10T01:38:32;3.55;;;0.57;;
2868;SDS011;1442;47.448;8.582;2023-05-10T01:41:07;1.10;;;0.50;;
2868;SDS011;1442;47.448;8.582;2023-05-10T01:43:37;1.08;;;0.47;;
2868;SDS011;1442;47.448;8.582;2023-05-10T01:46:07;4.10;;;0.50;;
2868;SDS011;1442;47.448;8.582;2023-05-10T01:48:38;0.30;;;0.30;;
2868;SDS011;1442;47.448;8.582;2023-05-10T01:53:35;0.82;;;0.40;;
2868;SDS011;1442;47.448;8.582;2023-05-10T01:56:04;0.50;;;0.50;;
2868;SDS011;1442;47.448;8.582;2023-05-10T01:58:32;1.17;;;0.60;;
2868;SDS011;1442;47.448;8.582;2023-05-10T02:01:01;0.45;;;0.45;;
2868;SDS011;1442;47.448;8.582;2023-05-10T02:03:30;0.50;;;0.50;;
2868;SDS011;1442;47.448;8.582;2023-05-10T02:05:59;4.10;;;0.57;;
2868;SDS011;1442;47.448;8.582;2023-05-10T02:08:26;0.90;;;0.50;;
2868;SDS011;1442;47.448;8.582;2023-05-10T02:10:54;0.40;;;0.40;;
2868;SDS011;1442;47.448;8.582;2023-05-10T02:13:22;0.68;;;0.55;;
2868;SDS011;1442;47.448;8.582;2023-05-10T02:15:50;0.52;;;0.38;;
2868;SDS011;1442;47.448;8.582;2023-05-10T02:18:17;1.75;;;0.50;;
2868;SDS011;1442;47.448;8.582;2023-05-10T02:20:45;0.55;;;0.52;;
2868;SDS011;1442;47.448;8.582;2023-05-10T02:23:14;0.45;;;0.45;;
2868;SDS011;1442;47.448;8.582;2023-05-10T02:25:43;6.10;;;0.60;;
2868;SDS011;1442;47.448;8.582;2023-05-10T02:28:11;2.50;;;0.60;;
2868;SDS011;1442;47.448;8.582;2023-05-10T02:30:39;2.28;;;0.68;;
2868;SDS011;1442;47.448;8.582;2023-05-10T02:33:06;0.60;;;0.60;;
2868;SDS011;1442;47.448;8.582;2023-05-10T02:35:34;2.38;;;0.63;;
2868;SDS011;1442;47.448;8.582;2023-05-10T02:38:01;5.88;;;0.70;;
2868;SDS011;1442;47.448;8.582;2023-05-10T02:40:30;2.65;;;0.60;;
2868;SDS011;1442;47.448;8.582;2023-05-10T02:42:59;0.40;;;0.40;;
2868;SDS011;1442;47.448;8.582;2023-05-10T02:45:29;1.80;;;0.47;;
2868;SDS011;1442;47.448;8.582;2023-05-10T02:47:57;3.63;;;0.80;;
2868;SDS011;1442;47.448;8.582;2023-05-10T02:50:25;2.10;;;0.60;;
2868;SDS011;1442;47.448;8.582;2023-05-10T02:52:54;1.75;;;0.50;;
2868;SDS011;1442;47.448;8.582;2023-05-10T02:55:25;1.23;;;0.60;;
2868;SDS011;1442;47.448;8.582;2023-05-10T02:57:59;0.98;;;0.70;;
2868;SDS011;1442;47.448;8.582;2023-05-10T03:00:26;2.05;;;0.90;;
2868;SDS011;1442;47.448;8.582;2023-05-10T03:02:54;2.20;;;1.15;;
2868;SDS011;1442;47.448;8.582;2023-05-10T03:05:21;1.13;;;0.88;;
2868;SDS011;1442;47.448;8.582;2023-05-10T03:07:48;2.13;;;1.10;;
2868;SDS011;1442;47.448;8.582;2023-05-10T03:10:16;0.70;;;0.70;;
2868;SDS011;1442;47.448;8.582;2023-05-10T03:12:47;2.47;;;0.77;;
2868;SDS011;1442;47.448;8.582;2023-05-10T03:15:19;0.68;;;0.68;;
2868;SDS011;1442;47.448;8.582;2023-05-10T03:17:51;1.23;;;0.70;;
2868;SDS011;1442;47.448;8.582;2023-05-10T03:20:20;2.58;;;0.60;;
2868;SDS011;1442;47.448;8.582;2023-05-10T03:22:51;2.55;;;0.90;;
2868;SDS011;1442;47.448;8.582;2023-05-10T03:25:18;1.13;;;0.90;;
2868;SDS011;1442;47.448;8.582;2023-05-10T03:27:47;0.70;;;0.70;;
2868;SDS011;1442;47.448;8.582;2023-05-10T03:30:15;0.95;;;0.85;;
2868;SDS011;1442;47.448;8.582;2023-05-10T03:32:44;1.67;;;1.15;;
2868;SDS011;1442;47.448;8.582;2023-05-10T03:35:12;1.13;;;0.93;;
2868;SDS011;1442;47.448;8.582;2023-05-10T03:37:39;1.55;;;0.70;;
2868;SDS011;1442;47.448;8.582;2023-05-10T03:40:06;1.35;;;1.25;;
2868;SDS011;1442;47.448;8.582;2023-05-10T03:42:34;1.77;;;0.80;;
2868;SDS011;1442;47.448;8.582;2023-05-10T03:45:01;3.83;;;0.90;;
2868;SDS011;1442;47.448;8.582;2023-05-10T03:47:28;3.13;;;0.80;;
2868;SDS011;1442;47.448;8.582;2023-05-10T03:49:56;1.10;;;0.90;;
2868;SDS011;1442;47.448;8.582;2023-05-10T03:52:24;5.88;;;0.80;;
2868;SDS011;1442;47.448;8.582;2023-05-10T03:54:51;3.00;;;1.30;;
2868;SDS011;1442;47.448;8.582;2023-05-10T03:57:18;3.15;;;1.02;;
2868;SDS011;1442;47.448;8.582;2023-05-10T03:59:45;8.15;;;1.13;;
2868;SDS011;1442;47.448;8.582;2023-05-10T04:02:12;1.92;;;0.75;;
2868;SDS011;1442;47.448;8.582;2023-05-10T04:04:39;1.17;;;1.08;;
2868;SDS011;1442;47.448;8.582;2023-05-10T04:07:08;1.45;;;1.20;;
2868;SDS011;1442;47.448;8.582;2023-05-10T04:09:35;3.08;;;0.90;;
2868;SDS011;1442;47.448;8.582;2023-05-10T04:12:02;0.88;;;0.88;;
2868;SDS011;1442;47.448;8.582;2023-05-10T04:14:30;3.53;;;1.05;;
2868;SDS011;1442;47.448;8.582;2023-05-10T04:16:57;2.90;;;1.33;;
2868;SDS011;1442;47.448;8.582;2023-05-10T04:19:28;7.95;;;1.35;;
2868;SDS011;1442;47.448;8.582;2023-05-10T04:21:55;1.65;;;1.23;;
2868;SDS011;1442;47.448;8.582;2023-05-10T04:24:24;1.45;;;1.17;;
2868;SDS011;1442;47.448;8.582;2023-05-10T04:26:51;2.08;;;1.40;;
2868;SDS011;1442;47.448;8.582;2023-05-10T04:29:18;2.63;;;2.05;;
2868;SDS011;1442;47.448;8.582;2023-05-10T04:31:45;1.60;;;1.50;;
2868;SDS011;1442;47.448;8.582;2023-05-10T04:34:13;3.78;;;1.88;;
2868;SDS011;1442;47.448;8.582;2023-05-10T04:36:40;1.70;;;1.33;;
2868;SDS011;1442;47.448;8.582;2023-05-10T04:39:08;2.10;;;1.60;;
2868;SDS011;1442;47.448;8.582;2023-05-10T04:41:37;1.88;;;1.40;;
2868;SDS011;1442;47.448;8.582;2023-05-10T04:44:04;6.13;;;1.33;;
2868;SDS011;1442;47.448;8.582;2023-05-10T04:46:31;2.78;;;1.55;;
2868;SDS011;1442;47.448;8.582;2023-05-10T04:48:58;1.17;;;1.17;;
2868;SDS011;1442;47.448;8.582;2023-05-10T04:51:26;3.85;;;1.50;;
2868;SDS011;1442;47.448;8.582;2023-05-10T04:53:53;2.97;;;1.17;;
2868;SDS011;1442;47.448;8.582;2023-05-10T04:56:20;1.70;;;1.23;;
2868;SDS011;1442;47.448;8.582;2023-05-10T04:58:49;4.22;;;1.23;;
2868;SDS011;1442;47.448;8.582;2023-05-10T05:01:16;2.70;;;1.73;;
2868;SDS011;1442;47.448;8.582;2023-05-10T05:03:43;2.80;;;1.40;;
2868;SDS011;1442;47.448;8.582;2023-05-10T05:06:10;4.15;;;1.35;;
2868;SDS011;1442;47.448;8.582;2023-05-10T05:08:38;3.20;;;1.17;;
2868;SDS011;1442;47.448;8.582;2023-05-10T05:11:05;1.73;;;1.20;;
2868;SDS011;1442;47.448;8.582;2023-05-10T05:13:32;1.45;;;1.10;;
2868;SDS011;1442;47.448;8.582;2023-05-10T05:16:01;2.25;;;1.20;;
2868;SDS011;1442;47.448;8.582;2023-05-10T05:18:28;1.90;;;1.73;;
2868;SDS011;1442;47.448;8.582;2023-05-10T05:20:55;3.38;;;1.17;;
2868;SDS011;1442;47.448;8.582;2023-05-10T05:23:22;1.73;;;1.30;;
2868;SDS011;1442;47.448;8.582;2023-05-10T05:25:50;1.33;;;1.23;;
2868;SDS011;1442;47.448;8.582;2023-05-10T05:28:18;2.28;;;0.98;;
2868;SDS011;1442;47.448;8.582;2023-05-10T05:30:45;2.67;;;1.42;;
2868;SDS011;1442;47.448;8.582;2023-05-10T05:33:14;2.13;;;1.08;;
2868;SDS011;1442;47.448;8.582;2023-05-10T05:35:41;2.15;;;1.00;;
2868;SDS011;1442;47.448;8.582;2023-05-10T05:38:12;2.28;;;0.80;;
2868;SDS011;1442;47.448;8.582;2023-05-10T05:40:40;1.63;;;1.02;;
2868;SDS011;1442;47.448;8.582;2023-05-10T05:43:07;8.48;;;1.20;;
2868;SDS011;1442;47.448;8.582;2023-05-10T05:45:34;3.75;;;0.80;;
2868;SDS011;1442;47.448;8.582;2023-05-10T05:48:01;2.90;;;1.00;;
2868;SDS011;1442;47.448;8.582;2023-05-10T05:50:30;2.10;;;1.10;;
2868;SDS011;1442;47.448;8.582;2023-05-10T05:52:57;4.75;;;1.00;;
2868;SDS011;1442;47.448;8.582;2023-05-10T05:55:24;1.42;;;1.08;;
2868;SDS011;1442;47.448;8.582;2023-05-10T05:57:51;1.60;;;0.88;;
2868;SDS011;1442;47.448;8.582;2023-05-10T06:00:19;3.63;;;0.85;;
2868;SDS011;1442;47.448;8.582;2023-05-10T06:02:46;1.65;;;1.10;;
2868;SDS011;1442;47.448;8.582;2023-05-10T06:05:13;1.92;;;1.20;;
2868;SDS011;1442;47.448;8.582;2023-05-10T06:07:42;3.70;;;1.17;;
2868;SDS011;1442;47.448;8.582;2023-05-10T06:10:09;1.33;;;1.10;;
2868;SDS011;1442;47.448;8.582;2023-05-10T06:12:36;2.35;;;0.90;;
2868;SDS011;1442;47.448;8.582;2023-05-10T06:15:04;3.83;;;1.10;;
2868;SDS011;1442;47.448;8.582;2023-05-10T06:17:31;5.82;;;1.20;;
2868;SDS011;1442;47.448;8.582;2023-05-10T06:19:58;1.20;;;0.98;;
2868;SDS011;1442;47.448;8.582;2023-05-10T06:22:25;2.40;;;1.23;;
2868;SDS011;1442;47.448;8.582;2023-05-10T06:24:54;2.50;;;1.08;;
2868;SDS011;1442;47.448;8.582;2023-05-10T06:27:21;7.50;;;1.33;;
2868;SDS011;1442;47.448;8.582;2023-05-10T06:29:48;4.78;;;1.23;;
2868;SDS011;1442;47.448;8.582;2023-05-10T06:32:15;4.68;;;0.98;;
2868;SDS011;1442;47.448;8.582;2023-05-10T06:34:42;1.00;;;0.90;;
2868;SDS011;1442;47.448;8.582;2023-05-10T06:37:10;3.33;;;0.80;;
2868;SDS011;1442;47.448;8.582;2023-05-10T06:39:37;0.80;;;0.80;;
2868;SDS011;1442;47.448;8.582;2023-05-10T06:42:05;0.98;;;0.95;;
2868;SDS011;1442;47.448;8.582;2023-05-10T06:44:32;0.70;;;0.70;;
2868;SDS011;1442;47.448;8.582;2023-05-10T06:47:00;0.93;;;0.90;;
2868;SDS011;1442;47.448;8.582;2023-05-10T06:49:27;1.02;;;0.75;;
2868;SDS011;1442;47.448;8.582;2023-05-10T06:51:55;1.33;;;0.95;;
2868;SDS011;1442;47.448;8.582;2023-05-10T06:54:22;1.70;;;1.05;;
2868;SDS011;1442;47.448;8.582;2023-05-10T06:56:49;2.60;;;0.85;;
2868;SDS011;1442;47.448;8.582;2023-05-10T06:59:18;2.20;;;0.90;;
2868;SDS011;1442;47.448;8.582;2023-05-10T07:01:46;1.38;;;0.80;;
2868;SDS011;1442;47.448;8.582;2023-05-10T07:04:13;0.70;;;0.70;;
2868;SDS011;1442;47.448;8.582;2023-05-10T07:06:40;1.83;;;0.60;;
2868;SDS011;1442;47.448;8.582;2023-05-10T07:09:07;0.90;;;0.60;;
2868;SDS011;1442;47.448;8.582;2023-05-10T07:11:35;0.98;;;0.43;;
2868;SDS011;1442;47.448;8.582;2023-05-10T07:14:02;0.82;;;0.60;;
2868;SDS011;1442;47.448;8.582;2023-05-10T07:16:31;0.40;;;0.40;;
2868;SDS011;1442;47.448;8.582;2023-05-10T07:18:58;0.63;;;0.50;;
2868;SDS011;1442;47.448;8.582;2023-05-10T07:21:25;2.30;;;0.60;;
2868;SDS011;1442;47.448;8.582;2023-05-10T07:23:53;3.53;;;0.40;;
2868;SDS011;1442;47.448;8.582;2023-05-10T07:26:20;6.40;;;0.93;;
2868;SDS011;1442;47.448;8.582;2023-05-10T07:28:47;0.60;;;0.60;;
2868;SDS011;1442;47.448;8.582;2023-05-10T07:31:15;4.68;;;0.70;;
2868;SDS011;1442;47.448;8.582;2023-05-10T07:33:43;2.13;;;0.93;;
2868;SDS011;1442;47.448;8.582;2023-05-10T07:36:10;1.50;;;0.80;;
2868;SDS011;1442;47.448;8.582;2023-05-10T07:38:37;2.28;;;0.70;;
2868;SDS011;1442;47.448;8.582;2023-05-10T07:41:05;4.85;;;0.80;;
2868;SDS011;1442;47.448;8.582;2023-05-10T07:43:32;1.48;;;0.70;;
2868;SDS011;1442;47.448;8.582;2023-05-10T07:45:59;1.95;;;0.85;;
2868;SDS011;1442;47.448;8.582;2023-05-10T07:48:26;1.45;;;0.95;;
2868;SDS011;1442;47.448;8.582;2023-05-10T07:50:55;2.17;;;0.80;;
2868;SDS011;1442;47.448;8.582;2023-05-10T07:53:22;0.98;;;0.88;;
2868;SDS011;1442;47.448;8.582;2023-05-10T07:55:50;1.73;;;0.75;;
2868;SDS011;1442;47.448;8.582;2023-05-10T07:58:17;3.25;;;1.02;;
2868;SDS011;1442;47.448;8.582;2023-05-10T08:00:44;5.13;;;1.58;;
2868;SDS011;1442;47.448;8.582;2023-05-10T08:03:11;3.30;;;0.88;;
2868;SDS011;1442;47.448;8.582;2023-05-10T08:05:38;5.10;;;1.05;;
2868;SDS011;1442;47.448;8.582;2023-05-10T08:08:06;3.75;;;1.17;;
2868;SDS011;1442;47.448;8.582;2023-05-10T08:10:34;3.00;;;0.90;;
2868;SDS011;1442;47.448;8.582;2023-05-10T08:13:01;2.35;;;0.73;;
2868;SDS011;1442;47.448;8.582;2023-05-10T08:15:28;4.97;;;1.10;;
2868;SDS011;1442;47.448;8.582;2023-05-10T08:17:55;2.45;;;1.00;;
2868;SDS011;1442;47.448;8.582;2023-05-10T08:20:22;2.97;;;1.10;;
2868;SDS011;1442;47.448;8.582;2023-05-10T08:22:49;2.88;;;1.00;;
2868;SDS011;1442;47.448;8.582;2023-05-10T08:25:18;3.60;;;1.23;;
2868;SDS011;1442;47.448;8.582;2023-05-10T08:27:45;3.60;;;1.30;;
2868;SDS011;1442;47.448;8.582;2023-05-10T08:30:12;2.67;;;1.40;;
2868;SDS011;1442;47.448;8.582;2023-05-10T08:32:39;1.98;;;1.00;;
2868;SDS011;1442;47.448;8.582;2023-05-10T08:35:07;4.75;;;1.20;;
2868;SDS011;1442;47.448;8.582;2023-05-10T08:37:34;5.28;;;1.08;;
2868;SDS011;1442;47.448;8.582;2023-05-10T08:40:01;4.03;;;1.20;;
2868;SDS011;1442;47.448;8.582;2023-05-10T08:42:30;4.70;;;1.40;;
2868;SDS011;1442;47.448;8.582;2023-05-10T08:44:57;2.33;;;0.93;;
2868;SDS011;1442;47.448;8.582;2023-05-10T08:47:26;2.20;;;1.38;;
2868;SDS011;1442;47.448;8.582;2023-05-10T08:49:53;0.93;;;0.82;;
2868;SDS011;1442;47.448;8.582;2023-05-10T08:52:21;5.35;;;1.00;;
2868;SDS011;1442;47.448;8.582;2023-05-10T08:54:49;6.88;;;1.13;;
2868;SDS011;1442;47.448;8.582;2023-05-10T08:57:16;2.75;;;1.00;;
2868;SDS011;1442;47.448;8.582;2023-05-10T08:59:45;1.48;;;1.25;;
2868;SDS011;1442;47.448;8.582;2023-05-10T09:02:12;5.18;;;1.10;;
2868;SDS011;1442;47.448;8.582;2023-05-10T09:04:40;4.18;;;0.88;;
2868;SDS011;1442;47.448;8.582;2023-05-10T09:07:07;2.03;;;1.00;;
2868;SDS011;1442;47.448;8.582;2023-05-10T09:09:34;4.75;;;1.08;;
2868;SDS011;1442;47.448;8.582;2023-05-10T09:12:01;2.33;;;1.00;;
2868;SDS011;1442;47.448;8.582;2023-05-10T09:14:29;6.00;;;1.50;;
2868;SDS011;1442;47.448;8.582;2023-05-10T09:16:57;5.10;;;1.42;;
2868;SDS011;1442;47.448;8.582;2023-05-10T09:19:24;2.17;;;1.10;;
2868;SDS011;1442;47.448;8.582;2023-05-10T09:21:51;5.13;;;0.95;;
2868;SDS011;1442;47.448;8.582;2023-05-10T09:24:19;5.65;;;1.10;;
2868;SDS011;1442;47.448;8.582;2023-05-10T09:26:46;3.85;;;1.27;;
2868;SDS011;1442;47.448;8.582;2023-05-10T09:29:14;3.38;;;1.25;;
2868;SDS011;1442;47.448;8.582;2023-05-10T09:31:45;2.75;;;0.98;;
2868;SDS011;1442;47.448;8.582;2023-05-10T09:34:16;4.97;;;1.10;;
2868;SDS011;1442;47.448;8.582;2023-05-10T09:36:50;3.90;;;1.10;;
2868;SDS011;1442;47.448;8.582;2023-05-10T09:39:17;4.07;;;1.20;;
2868;SDS011;1442;47.448;8.582;2023-05-10T09:41:45;2.63;;;1.15;;
2868;SDS011;1442;47.448;8.582;2023-05-10T09:44:12;3.50;;;1.05;;
2868;SDS011;1442;47.448;8.582;2023-05-10T09:46:48;9.57;;;1.17;;
2868;SDS011;1442;47.448;8.582;2023-05-10T09:49:17;5.25;;;1.10;;
2868;SDS011;1442;47.448;8.582;2023-05-10T09:51:44;1.65;;;1.15;;
2868;SDS011;1442;47.448;8.582;2023-05-10T09:54:13;3.15;;;1.27;;
2868;SDS011;1442;47.448;8.582;2023-05-10T09:56:40;1.85;;;1.02;;
2868;SDS011;1442;47.448;8.582;2023-05-10T09:59:09;3.55;;;1.08;;
2868;SDS011;1442;47.448;8.582;2023-05-10T10:01:36;4.95;;;1.33;;
2868;SDS011;1442;47.448;8.582;2023-05-10T10:04:04;3.53;;;1.20;;
2868;SDS011;1442;47.448;8.582;2023-05-10T10:06:36;2.85;;;1.08;;
2868;SDS011;1442;47.448;8.582;2023-05-10T10:09:03;6.88;;;1.38;;
2868;SDS011;1442;47.448;8.582;2023-05-10T10:11:31;4.30;;;1.10;;
2868;SDS011;1442;47.448;8.582;2023-05-10T10:13:58;3.83;;;1.67;;
2868;SDS011;1442;47.448;8.582;2023-05-10T10:16:26;4.20;;;1.45;;
2868;SDS011;1442;47.448;8.582;2023-05-10T10:18:54;2.03;;;1.05;;
2868;SDS011;1442;47.448;8.582;2023-05-10T10:21:21;4.68;;;1.38;;
2868;SDS011;1442;47.448;8.582;2023-05-10T10:23:50;4.93;;;1.15;;
2868;SDS011;1442;47.448;8.582;2023-05-10T10:26:18;5.10;;;1.10;;
2868;SDS011;1442;47.448;8.582;2023-05-10T10:28:47;2.30;;;1.02;;
2868;SDS011;1442;47.448;8.582;2023-05-10T10:31:17;4.22;;;0.95;;
2868;SDS011;1442;47.448;8.582;2023-05-10T10:33:51;1.30;;;0.80;;
2868;SDS011;1442;47.448;8.582;2023-05-10T10:36:22;6.13;;;1.08;;
2868;SDS011;1442;47.448;8.582;2023-05-10T10:38:57;4.55;;;1.10;;
2868;SDS011;1442;47.448;8.582;2023-05-10T10:41:32;1.92;;;0.90;;
2868;SDS011;1442;47.448;8.582;2023-05-10T10:46:58;4.18;;;1.08;;
2868;SDS011;1442;47.448;8.582;2023-05-10T10:49:25;6.63;;;1.10;;
2868;SDS011;1442;47.448;8.582;2023-05-10T10:54:40;4.57;;;1.00;;
2868;SDS011;1442;47.448;8.582;2023-05-10T10:57:11;1.90;;;0.98;;
2868;SDS011;1442;47.448;8.582;2023-05-10T10:59:41;2.33;;;1.02;;
2868;SDS011;1442;47.448;8.582;2023-05-10T11:02:09;3.13;;;0.90;;
2868;SDS011;1442;47.448;8.582;2023-05-10T11:04:42;5.20;;;1.10;;
2868;SDS011;1442;47.448;8.582;2023-05-10T11:07:17;4.60;;;1.10;;
2868;SDS011;1442;47.448;8.582;2023-05-10T11:09:47;7.40;;;1.30;;
2868;SDS011;1442;47.448;8.582;2023-05-10T11:12:14;4.15;;;0.95;;
2868;SDS011;1442;47.448;8.582;2023-05-10T11:14:41;3.83;;;1.15;;
2868;SDS011;1442;47.448;8.582;2023-05-10T11:17:23;3.60;;;1.00;;
2868;SDS011;1442;47.448;8.582;2023-05-10T11:20:06;3.47;;;1.02;;
2868;SDS011;1442;47.448;8.582;2023-05-10T11:22:48;4.25;;;0.98;;
2868;SDS011;1442;47.448;8.582;2023-05-10T11:25:17;5.90;;;1.00;;
2868;SDS011;1442;47.448;8.582;2023-05-10T11:27:44;7.32;;;1.38;;
2868;SDS011;1442;47.448;8.582;2023-05-10T11:30:12;1.63;;;0.80;;
2868;SDS011;1442;47.448;8.582;2023-05-10T11:32:40;2.47;;;0.77;;
2868;SDS011;1442;47.448;8.582;2023-05-10T11:35:07;5.82;;;1.25;;
2868;SDS011;1442;47.448;8.582;2023-05-10T11:37:34;2.33;;;0.75;;
2868;SDS011;1442;47.448;8.582;2023-05-10T11:40:03;3.13;;;1.20;;
2868;SDS011;1442;47.448;8.582;2023-05-10T11:42:31;6.68;;;0.90;;
2868;SDS011;1442;47.448;8.582;2023-05-10T11:45:00;1.65;;;0.65;;
2868;SDS011;1442;47.448;8.582;2023-05-10T11:47:27;4.28;;;0.85;;
2868;SDS011;1442;47.448;8.582;2023-05-10T11:49:54;2.75;;;1.13;;
2868;SDS011;1442;47.448;8.582;2023-05-10T11:52:21;2.15;;;0.73;;
2868;SDS011;1442;47.448;8.582;2023-05-10T11:54:50;1.05;;;0.80;;
2868;SDS011;1442;47.448;8.582;2023-05-10T11:57:18;4.85;;;0.70;;
2868;SDS011;1442;47.448;8.582;2023-05-10T11:59:47;5.10;;;0.80;;
2868;SDS011;1442;47.448;8.582;2023-05-10T12:02:14;1.38;;;0.60;;
2868;SDS011;1442;47.448;8.582;2023-05-10T12:04:41;4.75;;;0.90;;
2868;SDS011;1442;47.448;8.582;2023-05-10T12:07:08;2.38;;;0.95;;
2868;SDS011;1442;47.448;8.582;2023-05-10T12:09:35;1.05;;;0.80;;
2868;SDS011;1442;47.448;8.582;2023-05-10T12:12:03;4.00;;;1.00;;
2868;SDS011;1442;47.448;8.582;2023-05-10T12:14:33;1.42;;;0.77;;
2868;SDS011;1442;47.448;8.582;2023-05-10T12:17:02;3.13;;;0.85;;
2868;SDS011;1442;47.448;8.582;2023-05-10T12:19:36;7.75;;;1.58;;
2868;SDS011;1442;47.448;8.582;2023-05-10T12:22:04;3.65;;;1.00;;
2868;SDS011;1442;47.448;8.582;2023-05-10T12:24:33;2.13;;;0.70;;
2868;SDS011;1442;47.448;8.582;2023-05-10T12:27:04;2.60;;;0.85;;
2868;SDS011;1442;47.448;8.582;2023-05-10T12:29:33;2.25;;;0.60;;
2868;SDS011;1442;47.448;8.582;2023-05-10T12:32:01;2.28;;;0.63;;
2868;SDS011;1442;47.448;8.582;2023-05-10T12:34:30;1.73;;;0.95;;
2868;SDS011;1442;47.448;8.582;2023-05-10T12:36:57;2.70;;;0.70;;
2868;SDS011;1442;47.448;8.582;2023-05-10T12:39:24;3.20;;;0.90;;
2868;SDS011;1442;47.448;8.582;2023-05-10T12:41:52;2.67;;;0.75;;
2868;SDS011;1442;47.448;8.582;2023-05-10T12:44:19;1.60;;;0.68;;
2868;SDS011;1442;47.448;8.582;2023-05-10T12:46:46;1.85;;;0.65;;
2868;SDS011;1442;47.448;8.582;2023-05-10T12:49:14;4.28;;;0.88;;
2868;SDS011;1442;47.448;8.582;2023-05-10T12:51:43;3.22;;;0.80;;
2868;SDS011;1442;47.448;8.582;2023-05-10T12:54:10;1.88;;;0.90;;
2868;SDS011;1442;47.448;8.582;2023-05-10T12:56:38;0.70;;;0.60;;
2868;SDS011;1442;47.448;8.582;2023-05-10T12:59:05;5.22;;;1.85;;
2868;SDS011;1442;47.448;8.582;2023-05-10T13:01:33;4.47;;;1.10;;
2868;SDS011;1442;47.448;8.582;2023-05-10T13:04:00;4.45;;;1.30;;
2868;SDS011;1442;47.448;8.582;2023-05-10T13:06:28;7.32;;;1.27;;
2868;SDS011;1442;47.448;8.582;2023-05-10T13:08:55;4.13;;;1.17;;
2868;SDS011;1442;47.448;8.582;2023-05-10T13:11:23;7.50;;;1.35;;
2868;SDS011;1442;47.448;8.582;2023-05-10T13:13:50;5.88;;;1.38;;
2868;SDS011;1442;47.448;8.582;2023-05-10T13:16:18;7.78;;;2.17;;
2868;SDS011;1442;47.448;8.582;2023-05-10T13:18:45;5.13;;;1.50;;
2868;SDS011;1442;47.448;8.582;2023-05-10T13:21:12;4.07;;;1.60;;
2868;SDS011;1442;47.448;8.582;2023-05-10T13:23:40;3.85;;;1.50;;
2868;SDS011;1442;47.448;8.582;2023-05-10T13:26:07;2.33;;;1.00;;
2868;SDS011;1442;47.448;8.582;2023-05-10T13:28:35;3.75;;;1.45;;
2868;SDS011;1442;47.448;8.582;2023-05-10T13:31:03;2.58;;;0.93;;
2868;SDS011;1442;47.448;8.582;2023-05-10T13:33:30;4.43;;;1.55;;
2868;SDS011;1442;47.448;8.582;2023-05-10T13:35:58;1.67;;;0.90;;
2868;SDS011;1442;47.448;8.582;2023-05-10T13:38:25;2.10;;;1.10;;
2868;SDS011;1442;47.448;8.582;2023-05-10T13:40:53;1.65;;;0.93;;
2868;SDS011;1442;47.448;8.582;2023-05-10T13:43:20;4.13;;;1.20;;
2868;SDS011;1442;47.448;8.582;2023-05-10T13:45:47;3.60;;;1.40;;
2868;SDS011;1442;47.448;8.582;2023-05-10T13:48:15;3.30;;;1.20;;
2868;SDS011;1442;47.448;8.582;2023-05-10T13:50:42;2.88;;;1.38;;
2868;SDS011;1442;47.448;8.582;2023-05-10T13:53:09;4.05;;;1.20;;
2868;SDS011;1442;47.448;8.582;2023-05-10T13:55:37;1.90;;;1.13;;
2868;SDS011;1442;47.448;8.582;2023-05-10T13:58:06;6.05;;;1.70;;
2868;SDS011;1442;47.448;8.582;2023-05-10T14:00:33;4.25;;;1.80;;
2868;SDS011;1442;47.448;8.582;2023-05-10T14:03:01;2.85;;;1.05;;
2868;SDS011;1442;47.448;8.582;2023-05-10T14:05:29;6.82;;;2.45;;
2868;SDS011;1442;47.448;8.582;2023-05-10T14:07:56;3.63;;;1.17;;
2868;SDS011;1442;47.448;8.582;2023-05-10T14:10:24;3.33;;;1.45;;
2868;SDS011;1442;47.448;8.582;2023-05-10T14:12:51;1.65;;;1.27;;
2868;SDS011;1442;47.448;8.582;2023-05-10T14:15:19;5.97;;;1.58;;
2868;SDS011;1442;47.448;8.582;2023-05-10T14:17:46;3.65;;;1.50;;
2868;SDS011;1442;47.448;8.582;2023-05-10T14:20:13;4.53;;;1.50;;
2868;SDS011;1442;47.448;8.582;2023-05-10T14:22:41;5.30;;;1.65;;
2868;SDS011;1442;47.448;8.582;2023-05-10T14:25:08;1.98;;;1.25;;
2868;SDS011;1442;47.448;8.582;2023-05-10T14:27:35;4.78;;;1.60;;
2868;SDS011;1442;47.448;8.582;2023-05-10T14:30:02;4.35;;;1.50;;
2868;SDS011;1442;47.448;8.582;2023-05-10T14:32:31;2.60;;;1.50;;
2868;SDS011;1442;47.448;8.582;2023-05-10T14:34:58;4.22;;;1.27;;
2868;SDS011;1442;47.448;8.582;2023-05-10T14:37:26;3.47;;;1.15;;
2868;SDS011;1442;47.448;8.582;2023-05-10T14:39:53;3.05;;;1.02;;
2868;SDS011;1442;47.448;8.582;2023-05-10T14:42:20;11.77;;;1.90;;
2868;SDS011;1442;47.448;8.582;2023-05-10T14:44:47;0.93;;;0.82;;
2868;SDS011;1442;47.448;8.582;2023-05-10T14:47:14;5.93;;;1.52;;
2868;SDS011;1442;47.448;8.582;2023-05-10T14:49:42;3.58;;;1.33;;
2868;SDS011;1442;47.448;8.582;2023-05-10T14:52:10;1.30;;;1.20;;
2868;SDS011;1442;47.448;8.582;2023-05-10T14:54:37;7.00;;;1.23;;
2868;SDS011;1442;47.448;8.582;2023-05-10T14:57:04;4.05;;;1.27;;
2868;SDS011;1442;47.448;8.582;2023-05-10T14:59:31;1.35;;;1.00;;
2868;SDS011;1442;47.448;8.582;2023-05-10T15:01:58;6.35;;;2.00;;
2868;SDS011;1442;47.448;8.582;2023-05-10T15:04:25;4.00;;;1.05;;
2868;SDS011;1442;47.448;8.582;2023-05-10T15:06:54;3.45;;;1.10;;
2868;SDS011;1442;47.448;8.582;2023-05-10T15:09:24;4.28;;;1.17;;
2868;SDS011;1442;47.448;8.582;2023-05-10T15:11:52;1.67;;;1.02;;
2868;SDS011;1442;47.448;8.582;2023-05-10T15:14:19;4.90;;;1.10;;
2868;SDS011;1442;47.448;8.582;2023-05-10T15:16:46;5.78;;;1.30;;
2868;SDS011;1442;47.448;8.582;2023-05-10T15:19:13;4.03;;;1.27;;
2868;SDS011;1442;47.448;8.582;2023-05-10T15:21:41;4.63;;;1.17;;
2868;SDS011;1442;47.448;8.582;2023-05-10T15:24:10;3.42;;;0.98;;
2868;SDS011;1442;47.448;8.582;2023-05-10T15:26:37;4.82;;;1.30;;
2868;SDS011;1442;47.448;8.582;2023-05-10T15:29:05;3.40;;;1.10;;
2868;SDS011;1442;47.448;8.582;2023-05-10T15:31:32;4.03;;;1.27;;
2868;SDS011;1442;47.448;8.582;2023-05-10T15:34:00;3.13;;;1.17;;